sensor_id;sensor_type;location;lat;lon;timestamp;temperature;humidity
52849;DHT22;38714;53.180;5.812;2023-03-17T00:00:28;6.90;99.90
52849;DHT22;38714;53.180;5.812;2023-03-17T00:02:55;6.90;99.90
52849;DHT22;38714;53.180;5.812;2023-03-17T00:05:26;6.90;99.90
52849;DHT22;38714;53.180;5.812;2023-03-17T00:07:54;6.90;99.90
52849;DHT22;38714;53.180;5.812;2023-03-17T00:10:24;6.90;99.90
52849;DHT22;38714;53.180;5.812;2023-03-17T00:12:52;7.00;99.90
52849;DHT22;38714;53.180;5.812;2023-03-17T00:15:24;7.00;99.90
52849;DHT22;38714;53.180;5.812;2023-03-17T00:17:52;7.00;99.90
52849;DHT22;38714;53.180;5.812;2023-03-17T00:20:25;7.00;99.90
52849;DHT22;38714;53.180;5.812;2023-03-17T00:22:54;7.00;99.90
52849;DHT22;38714;53.180;5.812;2023-03-17T00:25:27;7.00;99.90
52849;DHT22;38714;53.180;5.812;2023-03-17T00:27:55;7.00;99.90
52849;DHT22;38714;53.180;5.812;2023-03-17T00:30:22;7.00;99.90
52849;DHT22;38714;53.180;5.812;2023-03-17T00:32:50;6.90;99.90
52849;DHT22;38714;53.180;5.812;2023-03-17T00:35:17;6.90;99.90
52849;DHT22;38714;53.180;5.812;2023-03-17T00:37:43;6.90;99.90
52849;DHT22;38714;53.180;5.812;2023-03-17T00:40:30;6.90;99.90
52849;DHT22;38714;53.180;5.812;2023-03-17T00:42:57;6.90;99.90
52849;DHT22;38714;53.180;5.812;2023-03-17T00:45:25;6.90;99.90
52849;DHT22;38714;53.180;5.812;2023-03-17T00:47:53;6.90;99.90
52849;DHT22;38714;53.180;5.812;2023-03-17T00:50:23;6.90;99.90
52849;DHT22;38714;53.180;5.812;2023-03-17T00:52:51;6.90;99.90
52849;DHT22;38714;53.180;5.812;2023-03-17T00:55:21;6.80;99.90
52849;DHT22;38714;53.180;5.812;2023-03-17T00:57:48;6.90;99.90
52849;DHT22;38714;53.180;5.812;2023-03-17T01:00:20;6.80;99.90
52849;DHT22;38714;53.180;5.812;2023-03-17T01:02:47;6.80;99.90
52849;DHT22;38714;53.180;5.812;2023-03-17T01:05:13;6.90;99.90
52849;DHT22;38714;53.180;5.812;2023-03-17T01:07:41;6.80;99.90
52849;DHT22;38714;53.180;5.812;2023-03-17T01:10:17;6.80;99.90
52849;DHT22;38714;53.180;5.812;2023-03-17T01:12:43;6.90;99.90
52849;DHT22;38714;53.180;5.812;2023-03-17T01:15:11;6.90;99.90
52849;DHT22;38714;53.180;5.812;2023-03-17T01:17:37;6.90;99.90
52849;DHT22;38714;53.180;5.812;2023-03-17T01:20:05;6.90;99.90
52849;DHT22;38714;53.180;5.812;2023-03-17T01:22:31;6.90;99.90
52849;DHT22;38714;53.180;5.812;2023-03-17T01:24:57;6.90;99.90
52849;DHT22;38714;53.180;5.812;2023-03-17T01:27:23;6.80;99.90
52849;DHT22;38714;53.180;5.812;2023-03-17T01:29:53;6.90;99.90
52849;DHT22;38714;53.180;5.812;2023-03-17T01:32:19;6.90;99.90
52849;DHT22;38714;53.180;5.812;2023-03-17T01:34:45;6.80;99.90
52849;DHT22;38714;53.180;5.812;2023-03-17T01:37:11;6.90;99.90
52849;DHT22;38714;53.180;5.812;2023-03-17T01:39:39;6.80;99.90
52849;DHT22;38714;53.180;5.812;2023-03-17T01:42:05;6.90;99.90
52849;DHT22;38714;53.180;5.812;2023-03-17T01:44:32;6.80;99.90
52849;DHT22;38714;53.180;5.812;2023-03-17T01:46:57;6.80;99.90
52849;DHT22;38714;53.180;5.812;2023-03-17T01:49:29;6.80;99.90
52849;DHT22;38714;53.180;5.812;2023-03-17T01:52:06;6.80;99.90
52849;DHT22;38714;53.180;5.812;2023-03-17T01:54:53;6.80;99.90
52849;DHT22;38714;53.180;5.812;2023-03-17T01:57:36;6.80;99.90
52849;DHT22;38714;53.180;5.812;2023-03-17T02:00:10;6.80;99.90
52849;DHT22;38714;53.180;5.812;2023-03-17T02:02:39;6.80;99.90
52849;DHT22;38714;53.180;5.812;2023-03-17T02:05:09;6.80;99.90
52849;DHT22;38714;53.180;5.812;2023-03-17T02:07:36;6.80;99.90
52849;DHT22;38714;53.180;5.812;2023-03-17T02:10:03;6.80;99.90
52849;DHT22;38714;53.180;5.812;2023-03-17T02:12:29;6.70;99.90
52849;DHT22;38714;53.180;5.812;2023-03-17T02:14:56;6.70;99.90
52849;DHT22;38714;53.180;5.812;2023-03-17T02:17:24;6.70;99.90
52849;DHT22;38714;53.180;5.812;2023-03-17T02:19:51;6.70;99.90
52849;DHT22;38714;53.180;5.812;2023-03-17T02:22:18;6.70;99.90
52849;DHT22;38714;53.180;5.812;2023-03-17T02:24:52;6.70;99.90
52849;DHT22;38714;53.180;5.812;2023-03-17T02:27:31;6.70;99.90
52849;DHT22;38714;53.180;5.812;2023-03-17T02:29:59;6.70;99.90
52849;DHT22;38714;53.180;5.812;2023-03-17T02:32:26;6.70;99.90
52849;DHT22;38714;53.180;5.812;2023-03-17T02:34:51;6.70;99.90
52849;DHT22;38714;53.180;5.812;2023-03-17T02:37:18;6.70;99.90
52849;DHT22;38714;53.180;5.812;2023-03-17T02:39:44;6.70;99.90
52849;DHT22;38714;53.180;5.812;2023-03-17T02:42:10;6.70;99.90
52849;DHT22;38714;53.180;5.812;2023-03-17T02:44:37;6.70;99.90
52849;DHT22;38714;53.180;5.812;2023-03-17T02:47:03;6.70;99.90
52849;DHT22;38714;53.180;5.812;2023-03-17T02:49:29;6.70;99.90
52849;DHT22;38714;53.180;5.812;2023-03-17T02:51:56;6.60;99.90
52849;DHT22;38714;53.180;5.812;2023-03-17T02:54:22;6.60;99.90
52849;DHT22;38714;53.180;5.812;2023-03-17T02:56:47;6.60;99.90
52849;DHT22;38714;53.180;5.812;2023-03-17T02:59:13;6.60;99.90
52849;DHT22;38714;53.180;5.812;2023-03-17T03:01:38;6.60;99.90
52849;DHT22;38714;53.180;5.812;2023-03-17T03:04:05;6.60;99.90
52849;DHT22;38714;53.180;5.812;2023-03-17T03:06:31;6.60;99.90
52849;DHT22;38714;53.180;5.812;2023-03-17T03:08:57;6.50;99.90
52849;DHT22;38714;53.180;5.812;2023-03-17T03:11:23;6.60;99.90
52849;DHT22;38714;53.180;5.812;2023-03-17T03:13:48;6.50;99.90
52849;DHT22;38714;53.180;5.812;2023-03-17T03:16:14;6.50;99.90
52849;DHT22;38714;53.180;5.812;2023-03-17T03:18:40;6.50;99.90
52849;DHT22;38714;53.180;5.812;2023-03-17T03:21:06;6.50;99.90
52849;DHT22;38714;53.180;5.812;2023-03-17T03:23:32;6.50;99.90
52849;DHT22;38714;53.180;5.812;2023-03-17T03:25:58;6.50;99.90
52849;DHT22;38714;53.180;5.812;2023-03-17T03:28:24;6.50;99.90
52849;DHT22;38714;53.180;5.812;2023-03-17T03:30:49;6.40;99.90
52849;DHT22;38714;53.180;5.812;2023-03-17T03:33:15;6.40;99.90
52849;DHT22;38714;53.180;5.812;2023-03-17T03:35:41;6.40;99.90
52849;DHT22;38714;53.180;5.812;2023-03-17T03:38:10;6.40;99.90
52849;DHT22;38714;53.180;5.812;2023-03-17T03:40:36;6.40;99.90
52849;DHT22;38714;53.180;5.812;2023-03-17T03:43:03;6.40;99.90
52849;DHT22;38714;53.180;5.812;2023-03-17T03:45:28;6.40;99.90
52849;DHT22;38714;53.180;5.812;2023-03-17T03:47:54;6.50;99.90
52849;DHT22;38714;53.180;5.812;2023-03-17T03:50:22;6.40;99.90
52849;DHT22;38714;53.180;5.812;2023-03-17T03:52:47;6.40;99.90
52849;DHT22;38714;53.180;5.812;2023-03-17T03:55:13;6.50;99.90
52849;DHT22;38714;53.180;5.812;2023-03-17T03:57:38;6.50;99.90
52849;DHT22;38714;53.180;5.812;2023-03-17T04:00:06;6.50;99.90
52849;DHT22;38714;53.180;5.812;2023-03-17T04:02:32;6.50;99.90
52849;DHT22;38714;53.180;5.812;2023-03-17T04:04:58;6.40;99.90
52849;DHT22;38714;53.180;5.812;2023-03-17T04:07:24;6.50;99.90
52849;DHT22;38714;53.180;5.812;2023-03-17T04:09:50;6.40;99.90
52849;DHT22;38714;53.180;5.812;2023-03-17T04:12:16;6.40;99.90
52849;DHT22;38714;53.180;5.812;2023-03-17T04:14:42;6.40;99.90
52849;DHT22;38714;53.180;5.812;2023-03-17T04:17:09;6.40;99.90
52849;DHT22;38714;53.180;5.812;2023-03-17T04:19:36;6.40;99.90
52849;DHT22;38714;53.180;5.812;2023-03-17T04:22:01;6.40;99.90
52849;DHT22;38714;53.180;5.812;2023-03-17T04:24:27;6.40;99.90
52849;DHT22;38714;53.180;5.812;2023-03-17T04:26:54;6.40;99.90
52849;DHT22;38714;53.180;5.812;2023-03-17T04:29:19;6.40;99.90
52849;DHT22;38714;53.180;5.812;2023-03-17T04:31:45;6.40;99.90
52849;DHT22;38714;53.180;5.812;2023-03-17T04:34:16;6.40;99.90
52849;DHT22;38714;53.180;5.812;2023-03-17T04:36:44;6.20;99.90
52849;DHT22;38714;53.180;5.812;2023-03-17T04:39:10;6.30;99.90
52849;DHT22;38714;53.180;5.812;2023-03-17T04:41:35;6.30;99.90
52849;DHT22;38714;53.180;5.812;2023-03-17T04:44:01;6.30;99.90
52849;DHT22;38714;53.180;5.812;2023-03-17T04:46:27;6.20;99.90
52849;DHT22;38714;53.180;5.812;2023-03-17T04:48:52;6.20;99.90
52849;DHT22;38714;53.180;5.812;2023-03-17T04:51:18;6.20;99.90
52849;DHT22;38714;53.180;5.812;2023-03-17T04:53:45;6.20;99.90
52849;DHT22;38714;53.180;5.812;2023-03-17T04:56:10;6.20;99.90
52849;DHT22;38714;53.180;5.812;2023-03-17T04:58:37;6.20;99.90
52849;DHT22;38714;53.180;5.812;2023-03-17T05:01:02;6.20;99.90
52849;DHT22;38714;53.180;5.812;2023-03-17T05:03:29;6.20;99.90
52849;DHT22;38714;53.180;5.812;2023-03-17T05:05:57;6.20;99.90
52849;DHT22;38714;53.180;5.812;2023-03-17T05:08:23;6.20;99.90
52849;DHT22;38714;53.180;5.812;2023-03-17T05:10:50;6.20;99.90
52849;DHT22;38714;53.180;5.812;2023-03-17T05:13:16;6.20;99.90
52849;DHT22;38714;53.180;5.812;2023-03-17T05:15:46;6.30;99.90
52849;DHT22;38714;53.180;5.812;2023-03-17T05:18:11;6.30;99.90
52849;DHT22;38714;53.180;5.812;2023-03-17T05:20:37;6.30;99.90
52849;DHT22;38714;53.180;5.812;2023-03-17T05:23:02;6.30;99.90
52849;DHT22;38714;53.180;5.812;2023-03-17T05:25:28;6.40;99.90
52849;DHT22;38714;53.180;5.812;2023-03-17T05:27:54;6.40;99.90
52849;DHT22;38714;53.180;5.812;2023-03-17T05:30:19;6.40;99.90
52849;DHT22;38714;53.180;5.812;2023-03-17T05:32:45;6.40;99.90
52849;DHT22;38714;53.180;5.812;2023-03-17T05:35:11;6.40;99.90
52849;DHT22;38714;53.180;5.812;2023-03-17T05:37:37;6.40;99.90
52849;DHT22;38714;53.180;5.812;2023-03-17T05:40:03;6.40;99.90
52849;DHT22;38714;53.180;5.812;2023-03-17T05:42:29;6.40;99.90
52849;DHT22;38714;53.180;5.812;2023-03-17T05:44:55;6.40;99.90
52849;DHT22;38714;53.180;5.812;2023-03-17T05:47:20;6.40;99.90
52849;DHT22;38714;53.180;5.812;2023-03-17T05:49:47;6.40;99.90
52849;DHT22;38714;53.180;5.812;2023-03-17T05:52:12;6.40;99.90
52849;DHT22;38714;53.180;5.812;2023-03-17T05:54:38;6.40;99.90
52849;DHT22;38714;53.180;5.812;2023-03-17T05:57:04;6.40;99.90
52849;DHT22;38714;53.180;5.812;2023-03-17T05:59:29;6.40;99.90
52849;DHT22;38714;53.180;5.812;2023-03-17T06:01:55;6.40;99.90
52849;DHT22;38714;53.180;5.812;2023-03-17T06:04:21;6.50;99.90
52849;DHT22;38714;53.180;5.812;2023-03-17T06:06:46;6.40;99.90
52849;DHT22;38714;53.180;5.812;2023-03-17T06:09:12;6.50;99.90
52849;DHT22;38714;53.180;5.812;2023-03-17T06:11:39;6.50;99.90
52849;DHT22;38714;53.180;5.812;2023-03-17T06:14:06;6.50;99.90
52849;DHT22;38714;53.180;5.812;2023-03-17T06:16:31;6.50;99.90
52849;DHT22;38714;53.180;5.812;2023-03-17T06:18:57;6.40;99.90
52849;DHT22;38714;53.180;5.812;2023-03-17T06:21:23;6.50;99.90
52849;DHT22;38714;53.180;5.812;2023-03-17T06:23:49;6.40;99.90
52849;DHT22;38714;53.180;5.812;2023-03-17T06:26:15;6.50;99.90
52849;DHT22;38714;53.180;5.812;2023-03-17T06:28:40;6.50;99.90
52849;DHT22;38714;53.180;5.812;2023-03-17T06:31:06;6.50;99.90
52849;DHT22;38714;53.180;5.812;2023-03-17T06:33:34;6.50;99.90
52849;DHT22;38714;53.180;5.812;2023-03-17T06:36:00;6.50;99.90
52849;DHT22;38714;53.180;5.812;2023-03-17T06:38:26;6.50;99.90
52849;DHT22;38714;53.180;5.812;2023-03-17T06:40:52;6.60;99.90
52849;DHT22;38714;53.180;5.812;2023-03-17T06:43:18;6.60;99.90
52849;DHT22;38714;53.180;5.812;2023-03-17T06:45:44;6.70;99.90
52849;DHT22;38714;53.180;5.812;2023-03-17T06:48:11;6.70;99.90
52849;DHT22;38714;53.180;5.812;2023-03-17T06:50:36;6.70;99.90
52849;DHT22;38714;53.180;5.812;2023-03-17T06:53:03;6.70;99.90
52849;DHT22;38714;53.180;5.812;2023-03-17T06:55:29;6.80;99.90
52849;DHT22;38714;53.180;5.812;2023-03-17T06:57:54;6.80;99.90
52849;DHT22;38714;53.180;5.812;2023-03-17T07:00:26;6.80;99.90
52849;DHT22;38714;53.180;5.812;2023-03-17T07:02:52;6.80;99.90
52849;DHT22;38714;53.180;5.812;2023-03-17T07:05:18;6.80;99.90
52849;DHT22;38714;53.180;5.812;2023-03-17T07:07:43;6.90;99.90
52849;DHT22;38714;53.180;5.812;2023-03-17T07:10:10;6.90;99.90
52849;DHT22;38714;53.180;5.812;2023-03-17T07:12:37;6.90;99.90
52849;DHT22;38714;53.180;5.812;2023-03-17T07:15:04;6.90;99.90
52849;DHT22;38714;53.180;5.812;2023-03-17T07:17:29;6.90;99.90
52849;DHT22;38714;53.180;5.812;2023-03-17T07:19:55;6.90;99.90
52849;DHT22;38714;53.180;5.812;2023-03-17T07:22:21;7.00;99.90
52849;DHT22;38714;53.180;5.812;2023-03-17T07:24:46;7.00;99.90
52849;DHT22;38714;53.180;5.812;2023-03-17T07:27:16;7.00;99.90
52849;DHT22;38714;53.180;5.812;2023-03-17T07:29:42;7.00;99.90
52849;DHT22;38714;53.180;5.812;2023-03-17T07:32:08;7.10;99.90
52849;DHT22;38714;53.180;5.812;2023-03-17T07:34:35;7.10;99.90
52849;DHT22;38714;53.180;5.812;2023-03-17T07:37:01;7.10;99.90
52849;DHT22;38714;53.180;5.812;2023-03-17T07:39:27;7.20;99.90
52849;DHT22;38714;53.180;5.812;2023-03-17T07:41:52;7.30;99.90
52849;DHT22;38714;53.180;5.812;2023-03-17T07:44:21;7.40;99.90
52849;DHT22;38714;53.180;5.812;2023-03-17T07:46:48;7.40;99.90
52849;DHT22;38714;53.180;5.812;2023-03-17T07:49:14;7.50;99.90
52849;DHT22;38714;53.180;5.812;2023-03-17T07:51:39;7.50;99.90
52849;DHT22;38714;53.180;5.812;2023-03-17T07:54:11;7.50;99.90
52849;DHT22;38714;53.180;5.812;2023-03-17T07:56:38;7.60;99.90
52849;DHT22;38714;53.180;5.812;2023-03-17T07:59:05;7.60;99.90
52849;DHT22;38714;53.180;5.812;2023-03-17T08:01:32;7.60;99.90
52849;DHT22;38714;53.180;5.812;2023-03-17T08:03:57;7.70;99.90
52849;DHT22;38714;53.180;5.812;2023-03-17T08:06:23;7.70;99.90
52849;DHT22;38714;53.180;5.812;2023-03-17T08:08:53;7.70;99.90
52849;DHT22;38714;53.180;5.812;2023-03-17T08:11:19;7.80;99.90
52849;DHT22;38714;53.180;5.812;2023-03-17T08:13:45;7.80;99.90
52849;DHT22;38714;53.180;5.812;2023-03-17T08:16:11;7.90;99.90
52849;DHT22;38714;53.180;5.812;2023-03-17T08:18:37;7.90;99.90
52849;DHT22;38714;53.180;5.812;2023-03-17T08:21:04;8.00;99.90
52849;DHT22;38714;53.180;5.812;2023-03-17T08:23:30;8.00;99.90
52849;DHT22;38714;53.180;5.812;2023-03-17T08:26:01;8.10;99.90
52849;DHT22;38714;53.180;5.812;2023-03-17T08:28:28;8.10;99.90
52849;DHT22;38714;53.180;5.812;2023-03-17T08:30:54;8.20;99.90
52849;DHT22;38714;53.180;5.812;2023-03-17T08:33:20;8.20;99.90
52849;DHT22;38714;53.180;5.812;2023-03-17T08:35:46;8.30;99.90
52849;DHT22;38714;53.180;5.812;2023-03-17T08:38:12;8.40;99.90
52849;DHT22;38714;53.180;5.812;2023-03-17T08:40:38;8.50;99.90
52849;DHT22;38714;53.180;5.812;2023-03-17T08:43:04;8.60;99.90
52849;DHT22;38714;53.180;5.812;2023-03-17T08:45:31;8.60;99.90
52849;DHT22;38714;53.180;5.812;2023-03-17T08:47:56;8.70;99.90
52849;DHT22;38714;53.180;5.812;2023-03-17T08:50:23;8.70;99.90
52849;DHT22;38714;53.180;5.812;2023-03-17T08:52:49;8.80;99.90
52849;DHT22;38714;53.180;5.812;2023-03-17T08:55:16;8.80;99.90
52849;DHT22;38714;53.180;5.812;2023-03-17T08:57:43;8.90;99.90
52849;DHT22;38714;53.180;5.812;2023-03-17T09:00:10;8.90;99.90
52849;DHT22;38714;53.180;5.812;2023-03-17T09:02:37;9.00;99.90
52849;DHT22;38714;53.180;5.812;2023-03-17T09:05:05;9.00;99.90
52849;DHT22;38714;53.180;5.812;2023-03-17T09:07:31;9.10;99.90
52849;DHT22;38714;53.180;5.812;2023-03-17T09:09:58;9.10;99.90
52849;DHT22;38714;53.180;5.812;2023-03-17T09:12:24;9.10;99.90
52849;DHT22;38714;53.180;5.812;2023-03-17T09:14:50;9.20;99.90
52849;DHT22;38714;53.180;5.812;2023-03-17T09:17:15;9.30;99.90
52849;DHT22;38714;53.180;5.812;2023-03-17T09:19:41;9.40;99.90
52849;DHT22;38714;53.180;5.812;2023-03-17T09:22:12;9.40;99.90
52849;DHT22;38714;53.180;5.812;2023-03-17T09:24:38;9.50;99.90
52849;DHT22;38714;53.180;5.812;2023-03-17T09:27:04;9.60;99.90
52849;DHT22;38714;53.180;5.812;2023-03-17T09:29:30;9.70;99.90
52849;DHT22;38714;53.180;5.812;2023-03-17T09:31:55;9.80;99.90
52849;DHT22;38714;53.180;5.812;2023-03-17T09:34:21;9.80;99.90
52849;DHT22;38714;53.180;5.812;2023-03-17T09:36:49;9.90;99.90
52849;DHT22;38714;53.180;5.812;2023-03-17T09:39:15;9.90;99.90
52849;DHT22;38714;53.180;5.812;2023-03-17T09:49:58;10.20;99.90
52849;DHT22;38714;53.180;5.812;2023-03-17T09:52:30;10.20;99.90
52849;DHT22;38714;53.180;5.812;2023-03-17T09:54:59;10.30;99.90
52849;DHT22;38714;53.180;5.812;2023-03-17T09:57:29;10.30;99.90
52849;DHT22;38714;53.180;5.812;2023-03-17T10:00:00;10.40;99.90
52849;DHT22;38714;53.180;5.812;2023-03-17T10:02:32;10.40;99.90
52849;DHT22;38714;53.180;5.812;2023-03-17T10:05:09;10.50;99.90
52849;DHT22;38714;53.180;5.812;2023-03-17T10:07:43;10.50;99.90
52849;DHT22;38714;53.180;5.812;2023-03-17T10:16:04;10.80;99.90
52849;DHT22;38714;53.180;5.812;2023-03-17T10:18:53;10.80;99.90
52849;DHT22;38714;53.180;5.812;2023-03-17T10:21:33;10.90;99.90
52849;DHT22;38714;53.180;5.812;2023-03-17T10:24:02;10.90;99.90
52849;DHT22;38714;53.180;5.812;2023-03-17T10:26:31;10.90;99.90
52849;DHT22;38714;53.180;5.812;2023-03-17T10:29:00;10.90;99.90
52849;DHT22;38714;53.180;5.812;2023-03-17T10:31:32;11.00;99.90
52849;DHT22;38714;53.180;5.812;2023-03-17T10:36:50;11.10;99.90
52849;DHT22;38714;53.180;5.812;2023-03-17T10:39:19;11.10;99.90
52849;DHT22;38714;53.180;5.812;2023-03-17T10:44:28;11.20;99.90
52849;DHT22;38714;53.180;5.812;2023-03-17T10:46:57;11.20;99.90
52849;DHT22;38714;53.180;5.812;2023-03-17T10:49:23;11.20;99.90
52849;DHT22;38714;53.180;5.812;2023-03-17T10:51:52;11.20;99.90
52849;DHT22;38714;53.180;5.812;2023-03-17T10:54:19;11.30;99.90
52849;DHT22;38714;53.180;5.812;2023-03-17T10:56:53;11.30;99.90
52849;DHT22;38714;53.180;5.812;2023-03-17T10:59:27;11.40;99.90
52849;DHT22;38714;53.180;5.812;2023-03-17T11:02:00;11.40;99.90
52849;DHT22;38714;53.180;5.812;2023-03-17T11:04:37;11.40;99.90
52849;DHT22;38714;53.180;5.812;2023-03-17T11:07:28;11.50;99.90
52849;DHT22;38714;53.180;5.812;2023-03-17T11:10:00;11.50;99.90
52849;DHT22;38714;53.180;5.812;2023-03-17T11:15:01;11.60;99.90
52849;DHT22;38714;53.180;5.812;2023-03-17T11:25:30;11.70;99.90
52849;DHT22;38714;53.180;5.812;2023-03-17T11:39:18;11.80;99.90
52849;DHT22;38714;53.180;5.812;2023-03-17T11:47:40;11.90;99.90
52849;DHT22;38714;53.180;5.812;2023-03-17T11:50:10;11.90;99.90
52849;DHT22;38714;53.180;5.812;2023-03-17T11:53:09;11.90;99.90
52849;DHT22;38714;53.180;5.812;2023-03-17T11:55:51;11.80;99.90
52849;DHT22;38714;53.180;5.812;2023-03-17T12:00:58;11.80;99.90
52849;DHT22;38714;53.180;5.812;2023-03-17T12:03:40;11.80;99.90
52849;DHT22;38714;53.180;5.812;2023-03-17T12:08:59;11.90;99.90
52849;DHT22;38714;53.180;5.812;2023-03-17T12:11:30;12.00;99.90
52849;DHT22;38714;53.180;5.812;2023-03-17T12:14:06;12.00;99.90
52849;DHT22;38714;53.180;5.812;2023-03-17T12:16:40;12.00;99.90
52849;DHT22;38714;53.180;5.812;2023-03-17T12:19:26;12.00;99.90
52849;DHT22;38714;53.180;5.812;2023-03-17T12:22:25;12.10;99.90
52849;DHT22;38714;53.180;5.812;2023-03-17T12:32:55;12.20;99.90
52849;DHT22;38714;53.180;5.812;2023-03-17T12:37:58;12.30;99.90
52849;DHT22;38714;53.180;5.812;2023-03-17T12:43:34;12.40;99.90
52849;DHT22;38714;53.180;5.812;2023-03-17T12:54:29;12.40;99.90
52849;DHT22;38714;53.180;5.812;2023-03-17T12:57:11;12.40;99.90
52849;DHT22;38714;53.180;5.812;2023-03-17T12:59:41;12.40;99.90
52849;DHT22;38714;53.180;5.812;2023-03-17T13:02:30;12.40;99.90
52849;DHT22;38714;53.180;5.812;2023-03-17T13:04:57;12.40;99.90
52849;DHT22;38714;53.180;5.812;2023-03-17T13:07:36;12.40;99.90
52849;DHT22;38714;53.180;5.812;2023-03-17T13:20:40;12.50;99.90
52849;DHT22;38714;53.180;5.812;2023-03-17T13:25:48;12.70;99.90
52849;DHT22;38714;53.180;5.812;2023-03-17T13:28:43;12.70;99.90
52849;DHT22;38714;53.180;5.812;2023-03-17T13:33:52;12.70;99.90
52849;DHT22;38714;53.180;5.812;2023-03-17T13:36:43;12.80;99.90
52849;DHT22;38714;53.180;5.812;2023-03-17T13:45:22;12.90;99.90
52849;DHT22;38714;53.180;5.812;2023-03-17T13:47:50;12.90;99.90
52849;DHT22;38714;53.180;5.812;2023-03-17T13:50:29;13.00;99.90
52849;DHT22;38714;53.180;5.812;2023-03-17T13:53:00;13.00;99.90
52849;DHT22;38714;53.180;5.812;2023-03-17T13:55:36;13.00;99.90
52849;DHT22;38714;53.180;5.812;2023-03-17T14:00:42;13.10;99.90
52849;DHT22;38714;53.180;5.812;2023-03-17T14:03:18;13.10;99.90
52849;DHT22;38714;53.180;5.812;2023-03-17T14:05:49;13.10;99.90
52849;DHT22;38714;53.180;5.812;2023-03-17T14:08:21;13.10;99.90
52849;DHT22;38714;53.180;5.812;2023-03-17T14:10:55;13.10;99.90
52849;DHT22;38714;53.180;5.812;2023-03-17T14:13:24;13.10;99.90
52849;DHT22;38714;53.180;5.812;2023-03-17T14:16:30;13.10;99.90
52849;DHT22;38714;53.180;5.812;2023-03-17T14:19:28;13.10;99.90
52849;DHT22;38714;53.180;5.812;2023-03-17T14:22:01;13.10;99.90
52849;DHT22;38714;53.180;5.812;2023-03-17T14:24:31;13.10;99.90
52849;DHT22;38714;53.180;5.812;2023-03-17T14:27:06;13.10;99.90
52849;DHT22;38714;53.180;5.812;2023-03-17T14:29:32;13.10;99.90
52849;DHT22;38714;53.180;5.812;2023-03-17T14:32:11;13.10;99.90
52849;DHT22;38714;53.180;5.812;2023-03-17T14:34:45;13.10;99.90
52849;DHT22;38714;53.180;5.812;2023-03-17T14:37:13;13.00;99.90
52849;DHT22;38714;53.180;5.812;2023-03-17T14:39:50;13.00;99.90
52849;DHT22;38714;53.180;5.812;2023-03-17T14:42:19;13.00;99.90
52849;DHT22;38714;53.180;5.812;2023-03-17T14:44:45;12.90;99.90
52849;DHT22;38714;53.180;5.812;2023-03-17T14:47:19;13.00;99.90
52849;DHT22;38714;53.180;5.812;2023-03-17T14:49:45;12.90;99.90
52849;DHT22;38714;53.180;5.812;2023-03-17T14:52:20;12.90;99.90
52849;DHT22;38714;53.180;5.812;2023-03-17T14:54:50;12.80;99.90
52849;DHT22;38714;53.180;5.812;2023-03-17T14:57:17;12.90;99.90
52849;DHT22;38714;53.180;5.812;2023-03-17T15:00:22;12.80;99.90
52849;DHT22;38714;53.180;5.812;2023-03-17T15:02:55;12.80;99.90
52849;DHT22;38714;53.180;5.812;2023-03-17T15:05:38;12.80;99.90
52849;DHT22;38714;53.180;5.812;2023-03-17T15:10:59;12.80;99.90
52849;DHT22;38714;53.180;5.812;2023-03-17T15:13:27;12.80;99.90
52849;DHT22;38714;53.180;5.812;2023-03-17T15:15:53;12.80;99.90
52849;DHT22;38714;53.180;5.812;2023-03-17T15:18:21;12.80;99.90
52849;DHT22;38714;53.180;5.812;2023-03-17T15:20:48;12.80;99.90
52849;DHT22;38714;53.180;5.812;2023-03-17T15:23:17;12.70;99.90
52849;DHT22;38714;53.180;5.812;2023-03-17T15:25:45;12.70;99.90
52849;DHT22;38714;53.180;5.812;2023-03-17T15:28:19;12.70;99.90
52849;DHT22;38714;53.180;5.812;2023-03-17T15:30:50;12.70;99.90
52849;DHT22;38714;53.180;5.812;2023-03-17T15:33:34;12.60;99.90
52849;DHT22;38714;53.180;5.812;2023-03-17T15:36:00;12.60;99.90
52849;DHT22;38714;53.180;5.812;2023-03-17T15:38:26;12.60;99.90
52849;DHT22;38714;53.180;5.812;2023-03-17T15:40:53;12.60;99.90
52849;DHT22;38714;53.180;5.812;2023-03-17T15:43:20;12.60;99.90
52849;DHT22;38714;53.180;5.812;2023-03-17T15:45:50;12.60;99.90
52849;DHT22;38714;53.180;5.812;2023-03-17T15:48:21;12.60;99.90
52849;DHT22;38714;53.180;5.812;2023-03-17T15:50:49;12.50;99.90
52849;DHT22;38714;53.180;5.812;2023-03-17T15:53:15;12.50;99.90
52849;DHT22;38714;53.180;5.812;2023-03-17T15:55:41;12.50;99.90
52849;DHT22;38714;53.180;5.812;2023-03-17T15:58:06;12.50;99.90
52849;DHT22;38714;53.180;5.812;2023-03-17T16:00:32;12.50;99.90
52849;DHT22;38714;53.180;5.812;2023-03-17T16:03:05;12.40;99.90
52849;DHT22;38714;53.180;5.812;2023-03-17T16:05:33;12.40;99.90
52849;DHT22;38714;53.180;5.812;2023-03-17T16:07:59;12.40;99.90
52849;DHT22;38714;53.180;5.812;2023-03-17T16:10:28;12.30;99.90
52849;DHT22;38714;53.180;5.812;2023-03-17T16:12:55;12.30;99.90
52849;DHT22;38714;53.180;5.812;2023-03-17T16:15:25;12.30;99.90
52849;DHT22;38714;53.180;5.812;2023-03-17T16:17:53;12.30;99.90
52849;DHT22;38714;53.180;5.812;2023-03-17T16:20:27;12.20;99.90
52849;DHT22;38714;53.180;5.812;2023-03-17T16:22:57;12.20;99.90
52849;DHT22;38714;53.180;5.812;2023-03-17T16:25:29;12.20;99.90
52849;DHT22;38714;53.180;5.812;2023-03-17T16:27:57;12.20;99.90
52849;DHT22;38714;53.180;5.812;2023-03-17T16:30:26;12.20;99.90
52849;DHT22;38714;53.180;5.812;2023-03-17T16:32:53;12.10;99.90
52849;DHT22;38714;53.180;5.812;2023-03-17T16:35:24;12.10;99.90
52849;DHT22;38714;53.180;5.812;2023-03-17T16:37:50;12.10;99.90
52849;DHT22;38714;53.180;5.812;2023-03-17T16:40:18;12.00;99.90
52849;DHT22;38714;53.180;5.812;2023-03-17T16:42:44;12.00;99.90
52849;DHT22;38714;53.180;5.812;2023-03-17T16:47:47;11.90;99.90
52849;DHT22;38714;53.180;5.812;2023-03-17T16:50:18;11.90;99.90
52849;DHT22;38714;53.180;5.812;2023-03-17T16:52:44;11.90;99.90
52849;DHT22;38714;53.180;5.812;2023-03-17T16:55:10;11.90;99.90
52849;DHT22;38714;53.180;5.812;2023-03-17T16:57:36;11.80;99.90
52849;DHT22;38714;53.180;5.812;2023-03-17T17:00:04;11.80;99.90
52849;DHT22;38714;53.180;5.812;2023-03-17T17:02:30;11.80;99.90
52849;DHT22;38714;53.180;5.812;2023-03-17T17:04:55;11.80;99.90
52849;DHT22;38714;53.180;5.812;2023-03-17T17:07:21;11.80;99.90
52849;DHT22;38714;53.180;5.812;2023-03-17T17:09:47;11.70;99.90
52849;DHT22;38714;53.180;5.812;2023-03-17T17:12:12;11.70;99.90
52849;DHT22;38714;53.180;5.812;2023-03-17T17:14:38;11.70;99.90
52849;DHT22;38714;53.180;5.812;2023-03-17T17:17:03;11.70;99.90
52849;DHT22;38714;53.180;5.812;2023-03-17T17:19:29;11.70;99.90
52849;DHT22;38714;53.180;5.812;2023-03-17T17:21:55;11.60;99.90
52849;DHT22;38714;53.180;5.812;2023-03-17T17:24:21;11.70;99.90
52849;DHT22;38714;53.180;5.812;2023-03-17T17:26:46;11.70;99.90
52849;DHT22;38714;53.180;5.812;2023-03-17T17:29:12;11.60;99.90
52849;DHT22;38714;53.180;5.812;2023-03-17T17:31:37;11.60;99.90
52849;DHT22;38714;53.180;5.812;2023-03-17T17:34:03;11.60;99.90